Time;durP1;ratioP1;P1;durP2;ratioP2;P2;SDS_P1;SDS_P2;PMS_P1;PMS_P2;Temp;Humidity;BMP_temperature;BMP_pressure;BME280_temperature;BME280_humidity;BME280_pressure;Samples;Min_cycle;Max_cycle;Signal;HPM_P1;HPM_P2
2024/03/08 00:02:16;;;;;;;61.00;41.80;;;;;;;-4.19;86.56;100314.67;449192;1240;139737;-62
2024/03/08 00:12:20;;;;;;;57.10;39.50;;;;;;;-4.23;87.34;100312.08;448305;1238;139856;-62
2024/03/08 00:22:23;;;;;;;58.10;37.00;;;;;;;-4.31;87.17;100304.14;447828;1236;139503;-61
2024/03/08 00:32:28;;;;;;;54.30;38.10;;;;;;;-4.42;87.49;100293.12;448373;1235;139188;-62
2024/03/08 00:42:33;;;;;;;59.70;40.80;;;;;;;-4.52;88.10;100294.89;449394;1240;139293;-63
2024/03/08 00:52:36;;;;;;;62.90;41.60;;;;;;;-4.60;88.95;100294.66;448595;1238;139725;-61
2024/03/08 01:02:40;;;;;;;54.60;42.00;;;;;;;-4.67;89.52;100285.37;447578;1240;139237;-64
2024/03/08 01:12:44;;;;;;;61.10;41.00;;;;;;;-4.75;90.16;100284.77;447996;1236;139174;-65
2024/03/08 01:22:48;;;;;;;60.30;42.10;;;;;;;-4.86;90.17;100278.70;447616;1237;139728;-60
2024/03/08 01:32:51;;;;;;;65.00;44.50;;;;;;;-4.95;90.70;100271.25;447458;1236;139272;-60
2024/03/08 01:42:54;;;;;;;56.30;40.00;;;;;;;-5.00;91.69;100264.71;448770;1239;140646;-64
2024/03/08 01:52:59;;;;;;;56.90;38.40;;;;;;;-5.03;92.93;100261.45;447474;1238;139167;-64
2024/03/08 02:03:03;;;;;;;;;;;;;;;-5.05;93.65;100257.82;449183;1235;139138;-61
2024/03/08 02:13:08;;;;;;;52.10;37.00;;;;;;;-5.11;94.27;100260.50;448201;1236;125728;-59
2024/03/08 02:23:11;;;;;;;54.60;38.80;;;;;;;-5.15;94.84;100252.77;448567;1240;139592;-64
2024/03/08 02:33:16;;;;;;;56.00;40.00;;;;;;;-5.25;94.58;100247.36;447617;1236;139132;-63
2024/03/08 02:43:22;;;;;;;54.10;39.10;;;;;;;-5.29;95.31;100247.67;448057;1240;139883;-63
2024/03/08 02:53:25;;;;;;;60.90;37.30;;;;;;;-5.28;96.28;100245.64;447404;1241;140022;-63
2024/03/08 03:03:28;;;;;;;57.30;38.60;;;;;;;-5.30;96.91;100241.36;448091;1240;139212;-63
2024/03/08 03:13:33;;;;;;;;;;;;;;;-5.32;97.09;100233.48;447370;1240;139675;-63
2024/03/08 03:23:39;;;;;;;50.50;39.20;;;;;;;-5.43;96.60;100233.01;447684;1240;126374;-61
2024/03/08 03:33:42;;;;;;;65.50;45.40;;;;;;;-5.56;96.35;100227.90;448125;1235;139648;-61
2024/03/08 03:43:46;;;;;;;51.00;33.70;;;;;;;-5.66;96.43;100232.55;448112;1240;139747;-60
2024/03/08 03:53:50;;;;;;;62.00;39.40;;;;;;;-5.74;96.45;100229.23;447991;1240;139559;-61
2024/03/08 04:03:53;;;;;;;60.60;41.30;;;;;;;-5.83;96.33;100227.23;448123;1236;139751;-61
2024/03/08 04:13:57;;;;;;;54.30;38.30;;;;;;;-5.90;96.61;100225.07;447938;1236;139271;-63
2024/03/08 04:24:00;;;;;;;52.40;38.10;;;;;;;-5.95;97.34;100223.65;448567;1239;139761;-65
2024/03/08 04:34:06;;;;;;;59.20;41.40;;;;;;;-6.01;97.28;100222.39;448290;1236;139833;-62
2024/03/08 04:44:10;;;;;;;57.20;39.60;;;;;;;-6.08;97.20;100222.48;447975;1241;139591;-62
2024/03/08 04:54:13;;;;;;;63.40;42.30;;;;;;;-6.13;97.51;100223.43;448209;1236;139803;-61
2024/03/08 05:04:17;;;;;;;60.50;40.30;;;;;;;-6.15;98.05;100221.20;448306;1240;139859;-61
2024/03/08 05:14:20;;;;;;;65.70;39.30;;;;;;;-6.09;99.24;100219.23;448125;1240;139722;-63
2024/03/08 05:24:24;;;;;;;55.10;40.20;;;;;;;-5.99;99.74;100209.45;448331;1240;139186;-64
2024/03/08 05:34:28;;;;;;;65.70;40.10;;;;;;;-5.88;99.36;100207.20;447824;1240;140816;-64
2024/03/08 05:44:31;;;;;;;74.50;40.80;;;;;;;-5.65;99.57;100206.98;448493;1240;139251;-64
2024/03/08 05:54:35;;;;;;;66.30;41.50;;;;;;;-5.30;99.82;100211.98;448148;1237;139266;-61
2024/03/08 06:04:38;;;;;;;66.90;43.40;;;;;;;-4.45;100.00;100215.96;448078;1237;139698;-61
2024/03/08 06:14:42;;;;;;;57.30;37.60;;;;;;;-1.68;100.00;100206.69;448258;1241;139966;-63
2024/03/08 06:24:47;;;;;;;57.50;38.50;;;;;;;2.34;97.73;100201.81;449461;1236;140472;-61
2024/03/08 06:34:51;;;;;;;62.70;39.40;;;;;;;6.33;90.19;100198.05;448152;1236;138612;-62
2024/03/08 06:44:59;;;;;;;49.70;34.10;;;;;;;10.70;82.84;100190.22;444217;1240;5103091;-60
2024/03/08 06:55:05;;;;;;;39.60;26.60;;;;;;;14.58;74.08;100182.89;449567;1240;137696;-61
2024/03/08 07:05:10;;;;;;;36.60;22.60;;;;;;;17.50;66.55;100167.48;448950;1241;140371;-56
2024/03/08 07:15:14;;;;;;;25.40;17.40;;;;;;;20.37;59.94;100165.11;448544;1240;139093;-62
2024/03/08 07:25:21;;;;;;;18.10;15.00;;;;;;;22.03;53.49;100158.92;448071;1240;138451;-65
2024/03/08 07:35:26;;;;;;;17.00;15.50;;;;;;;23.25;48.84;100161.80;448123;1240;139040;-70
2024/03/08 07:45:30;;;;;;;16.80;15.20;;;;;;;24.17;45.14;100158.43;448172;1240;138895;-62
2024/03/08 07:55:34;;;;;;;22.50;19.90;;;;;;;24.85;41.97;100147.69;448416;1240;138439;-63
2024/03/08 08:05:38;;;;;;;34.40;32.30;;;;;;;26.31;40.38;100148.06;447931;1241;139722;-59
2024/03/08 08:15:42;;;;;;;60.30;57.40;;;;;;;27.63;37.98;100144.84;448257;1240;138459;-57
2024/03/08 08:25:45;;;;;;;34.50;32.30;;;;;;;28.36;34.77;100143.23;448789;1240;138525;-67
2024/03/08 08:35:51;;;;;;;27.20;25.50;;;;;;;29.37;34.27;100140.52;448121;1240;139061;-68
2024/03/08 08:45:55;;;;;;;20.80;19.20;;;;;;;31.33;33.03;100138.14;448183;1241;140057;-64
2024/03/08 08:56:01;;;;;;;21.50;20.30;;;;;;;32.31;31.56;100132.84;448730;1236;139041;-62
2024/03/08 09:06:09;;;;;;;12.90;11.70;;;;;;;31.96;29.90;100131.66;448385;1240;138911;-67
2024/03/08 09:16:12;;;;;;;10.00;8.50;;;;;;;30.04;29.14;100124.91;449137;1237;138584;-64
2024/03/08 09:26:16;;;;;;;11.40;10.00;;;;;;;25.14;28.55;100113.69;448449;1240;138366;-67
2024/03/08 09:36:32;;;;;;;9.20;8.20;;;;;;;18.97;29.99;100105.98;448171;1240;138833;-65
2024/03/08 09:46:36;;;;;;;11.20;9.10;;;;;;;14.62;32.22;100112.52;448335;1239;138806;-69
2024/03/08 09:56:44;;;;;;;9.10;6.70;;;;;;;12.03;34.36;100114.94;448911;1240;138456;-70
2024/03/08 10:06:47;;;;;;;13.40;9.10;;;;;;;10.16;35.94;100117.71;448755;1240;139135;-64
2024/03/08 10:16:52;;;;;;;11.30;8.80;;;;;;;9.07;37.88;100108.98;448030;1241;138427;-72
2024/03/08 10:27:00;;;;;;;11.20;8.90;;;;;;;8.16;39.20;100099.83;447751;1240;138235;-67
2024/03/08 10:37:05;;;;;;;11.70;9.70;;;;;;;7.43;40.54;100096.23;448354;1240;138525;-63
2024/03/08 10:47:18;;;;;;;13.60;9.60;;;;;;;6.83;41.94;100093.98;448288;1240;139283;-66
2024/03/08 10:57:24;;;;;;;15.20;10.00;;;;;;;6.47;42.74;100085.98;448346;1239;138143;-58
2024/03/08 11:07:28;;;;;;;12.20;8.00;;;;;;;6.17;43.48;100076.33;448488;1240;138766;-59
2024/03/08 11:17:49;;;;;;;10.80;9.70;;;;;;;5.98;44.26;100072.33;447819;1240;138074;-61
2024/03/08 11:28:08;;;;;;;16.00;9.30;;;;;;;5.88;44.86;100066.97;447631;1240;138293;-65
2024/03/08 11:38:16;;;;;;;11.10;9.90;;;;;;;5.79;45.64;100061.02;448694;1240;138500;-64
2024/03/08 11:48:19;;;;;;;14.70;11.20;;;;;;;5.76;45.93;100050.20;449417;1239;138511;-59
2024/03/08 11:58:23;;;;;;;11.20;9.50;;;;;;;5.76;46.34;100035.24;447510;1240;138326;-60
2024/03/08 12:08:28;;;;;;;12.10;9.60;;;;;;;5.81;46.96;100027.92;448106;1240;138298;-62
2024/03/08 12:18:34;;;;;;;12.50;10.20;;;;;;;5.87;47.12;100012.24;447820;1240;138129;-59
2024/03/08 12:28:37;;;;;;;15.70;11.40;;;;;;;5.90;47.48;99998.95;447915;1239;138690;-67
2024/03/08 12:38:47;;;;;;;13.60;11.30;;;;;;;5.86;47.54;99987.98;447524;1237;138397;-60
2024/03/08 12:48:53;;;;;;;12.70;9.70;;;;;;;5.91;47.94;99977.00;447859;1240;138960;-62
2024/03/08 12:58:57;;;;;;;15.10;10.60;;;;;;;5.94;48.28;99965.96;447950;1240;138531;-61
2024/03/08 13:09:05;;;;;;;14.10;11.80;;;;;;;6.01;48.54;99953.70;447713;1240;137974;-62
2024/03/08 13:19:08;;;;;;;16.20;10.60;;;;;;;6.07;48.71;99950.56;447239;1240;138568;-60
2024/03/08 13:29:12;;;;;;;15.10;11.90;;;;;;;6.07;48.77;99942.73;447733;1241;138148;-61
2024/03/08 13:39:15;;;;;;;12.40;10.10;;;;;;;6.04;48.86;99928.40;447487;1240;139109;-60
2024/03/08 13:49:18;;;;;;;13.50;9.50;;;;;;;6.07;49.15;99918.56;447252;1241;137968;-54
2024/03/08 13:59:22;;;;;;;13.80;9.90;;;;;;;6.12;49.30;99906.16;447213;1240;138316;-56
2024/03/08 14:09:26;;;;;;;12.80;9.20;;;;;;;6.17;49.13;99899.36;447147;1240;138722;-51
2024/03/08 14:19:30;;;;;;;14.60;9.10;;;;;;;6.21;48.99;99891.04;447201;1239;138384;-57
2024/03/08 14:29:34;;;;;;;11.80;8.70;;;;;;;6.23;48.75;99885.58;446851;1240;138574;-58
2024/03/08 14:39:38;;;;;;;12.00;8.80;;;;;;;6.19;48.77;99878.60;447978;1240;138379;-63
2024/03/08 14:49:41;;;;;;;10.90;8.80;;;;;;;6.18;48.73;99870.34;447461;1240;137890;-70
2024/03/08 14:59:46;;;;;;;15.40;11.50;;;;;;;6.16;48.56;99861.71;447326;1241;137943;-70
2024/03/08 15:09:49;;;;;;;14.70;8.70;;;;;;;6.07;47.97;99857.56;447032;1240;139143;-61
2024/03/08 15:19:54;;;;;;;12.50;8.50;;;;;;;5.98;47.88;99849.36;447252;1240;138419;-59
2024/03/08 15:29:58;;;;;;;13.60;11.00;;;;;;;5.89;47.47;99842.94;447448;1239;137937;-63
2024/03/08 15:40:12;;;;;;;12.50;9.10;;;;;;;5.74;47.68;99844.79;447832;1240;137911;-77
2024/03/08 15:50:15;;;;;;;14.20;9.20;;;;;;;5.57;47.87;99839.02;447725;1242;137925;-76
2024/03/08 16:00:33;;;;;;;13.50;9.00;;;;;;;5.39;47.95;99841.42;449281;1235;138815;-59
2024/03/08 16:10:36;;;;;;;12.50;8.00;;;;;;;5.18;47.83;99846.22;447098;1240;139033;-60
2024/03/08 16:20:43;;;;;;;13.70;8.90;;;;;;;4.93;47.97;99840.34;447227;1240;138047;-58
2024/03/08 16:30:48;;;;;;;14.20;11.60;;;;;;;4.66;48.48;99848.75;447539;1240;138364;-59
2024/03/08 16:40:54;;;;;;;17.10;12.80;;;;;;;4.36;49.01;99843.89;447445;1239;138544;-71
2024/03/08 16:50:58;;;;;;;21.90;12.00;;;;;;;4.03;49.47;99844.32;447177;1236;138752;-72
2024/03/08 17:01:02;;;;;;;20.30;11.80;;;;;;;3.65;50.03;99839.79;447259;1238;137985;-58
2024/03/08 17:11:11;;;;;;;29.30;18.30;;;;;;;3.31;50.21;99838.40;446928;1240;138030;-60
2024/03/08 17:21:15;;;;;;;22.50;15.60;;;;;;;3.02;50.80;99843.73;447173;1239;138573;-59
2024/03/08 17:31:21;;;;;;;41.60;24.70;;;;;;;2.75;51.79;99845.72;447151;1240;137952;-58
2024/03/08 17:41:25;;;;;;;29.60;21.10;;;;;;;2.56;52.03;99843.27;447332;1238;137997;-59
2024/03/08 17:51:29;;;;;;;31.30;19.70;;;;;;;2.33;53.00;99844.05;447255;1240;138462;-58
2024/03/08 18:01:36;;;;;;;45.70;27.30;;;;;;;2.12;53.53;99843.70;447476;1236;138446;-59
2024/03/08 18:11:39;;;;;;;39.40;23.50;;;;;;;2.00;53.88;99841.23;448500;1240;137942;-59
2024/03/08 18:21:43;;;;;;;29.50;20.40;;;;;;;1.85;54.15;99839.70;447264;1236;138335;-58
2024/03/08 18:31:49;;;;;;;31.50;23.90;;;;;;;1.72;54.77;99840.38;447271;1240;138840;-58
2024/03/08 18:41:52;;;;;;;34.70;22.00;;;;;;;1.64;55.36;99831.92;447548;1242;354916;-58
2024/03/08 18:51:56;;;;;;;24.60;15.60;;;;;;;1.52;55.52;99833.21;447736;1240;137976;-59
2024/03/08 19:01:59;;;;;;;23.10;15.50;;;;;;;1.54;56.04;99824.89;447571;1239;139453;-72
2024/03/08 19:12:08;;;;;;;22.80;17.50;;;;;;;1.52;56.15;99820.79;447449;1240;138462;-72
2024/03/08 19:22:14;;;;;;;24.30;17.80;;;;;;;1.56;56.33;99820.02;448848;1239;138424;-72
2024/03/08 19:32:19;;;;;;;26.00;18.20;;;;;;;1.58;56.54;99821.36;448137;1240;138529;-57
2024/03/08 19:42:24;;;;;;;24.00;18.20;;;;;;;1.45;56.82;99818.70;447171;1240;137991;-59
2024/03/08 19:52:28;;;;;;;29.70;18.30;;;;;;;1.34;57.02;99815.51;447610;1239;138523;-71
2024/03/08 20:02:36;;;;;;;30.00;19.80;;;;;;;1.23;57.52;99811.08;447891;1235;138113;-71
2024/03/08 20:12:42;;;;;;;33.40;21.90;;;;;;;1.15;58.13;99806.27;447207;1236;138571;-58
2024/03/08 20:22:46;;;;;;;;;;;;;;;1.02;58.48;99805.48;447426;1240;138618;-60
2024/03/08 20:32:54;;;;;;;40.90;26.40;;;;;;;0.82;59.08;99803.50;447898;1240;124827;-62
2024/03/08 20:42:57;;;;;;;36.50;25.60;;;;;;;0.69;59.72;99795.15;448327;1235;138234;-58
2024/03/08 20:53:00;;;;;;;41.80;24.90;;;;;;;0.63;60.32;99789.59;447299;1239;138112;-60
2024/03/08 21:03:07;;;;;;;36.50;24.00;;;;;;;0.56;60.67;99789.89;447225;1236;137926;-59
2024/03/08 21:13:10;;;;;;;37.40;26.10;;;;;;;0.46;61.28;99791.96;447570;1238;138189;-58
2024/03/08 21:23:14;;;;;;;37.40;25.70;;;;;;;0.30;61.60;99786.07;447263;1237;138532;-58
2024/03/08 21:33:18;;;;;;;41.20;26.10;;;;;;;0.11;62.16;99783.99;447554;1236;137963;-71
2024/03/08 21:43:22;;;;;;;41.60;26.90;;;;;;;-0.10;62.71;99779.02;447513;1236;139697;-60
2024/03/08 21:53:25;;;;;;;40.70;27.60;;;;;;;-0.26;63.34;99774.48;448051;1236;139502;-58
2024/03/08 22:03:38;;;;;;;36.20;26.40;;;;;;;-0.42;63.95;99768.18;447490;1240;138990;-70
2024/03/08 22:13:45;;;;;;;36.90;25.30;;;;;;;-0.55;64.49;99764.09;447483;1239;138980;-70
2024/03/08 22:23:48;;;;;;;33.90;25.00;;;;;;;-0.67;65.12;99760.84;447732;1236;139862;-69
2024/03/08 22:33:52;;;;;;;40.80;27.70;;;;;;;-0.80;65.48;99763.43;447410;1240;139140;-70
2024/03/08 22:43:56;;;;;;;35.30;24.20;;;;;;;-0.96;66.09;99756.61;447777;1239;139621;-59
2024/03/08 22:54:01;;;;;;;35.20;25.80;;;;;;;-1.13;66.31;99753.24;447623;1237;140442;-59
2024/03/08 23:04:08;;;;;;;34.30;26.20;;;;;;;-1.31;67.01;99748.83;447499;1236;139708;-60
2024/03/08 23:14:11;;;;;;;35.50;24.10;;;;;;;-1.42;67.93;99745.69;447332;1238;139910;-59
2024/03/08 23:24:17;;;;;;;38.70;28.20;;;;;;;-1.54;68.33;99748.93;448082;1240;140125;-58
2024/03/08 23:34:23;;;;;;;44.00;29.70;;;;;;;-1.70;68.67;99741.91;448026;1238;139972;-58
2024/03/08 23:44:27;;;;;;;49.80;32.10;;;;;;;-1.81;69.45;99742.36;447739;1240;139195;-58
2024/03/08 23:54:34;;;;;;;;;;;;;;;-1.95;69.49;99740.45;447653;1240;139612;-57
